Time;durP1;ratioP1;P1;durP2;ratioP2;P2;SDS_P1;SDS_P2;PMS_P1;PMS_P2;Temp;Humidity;BMP_temperature;BMP_pressure;BME280_temperature;BME280_humidity;BME280_pressure;Samples;Min_cycle;Max_cycle;Signal;HPM_P1;HPM_P2
2021/05/13 00:01:34;;;;;;;6.93;4.82;;;;;;;;;;4953498;29;20506;-69
2021/05/13 00:04:01;;;;;;;6.28;4.60;;;;;;;;;;4953648;29;20515;-68
2021/05/13 00:06:28;;;;;;;8.45;4.78;;;;;;;;;;4953204;29;20051;-69
2021/05/13 00:08:56;;;;;;;7.32;4.35;;;;;;;;;;4953165;29;20138;-68
2021/05/13 00:11:29;;;;;;;9.70;5.18;;;;;;;;;;4953336;29;20058;-69
2021/05/13 00:13:56;;;;;;;6.32;4.63;;;;;;;;;;4953469;29;20052;-69
2021/05/13 00:16:28;;;;;;;8.43;4.93;;;;;;;;;;4953296;29;20043;-68
2021/05/13 00:18:57;;;;;;;9.45;5.07;;;;;;;;;;4953033;29;20094;-69
2021/05/13 00:21:24;;;;;;;7.00;4.80;;;;;;;;;;4953343;29;20114;-69
2021/05/13 00:23:51;;;;;;;6.95;4.95;;;;;;;;;;4953371;29;20061;-69
2021/05/13 00:26:34;;;;;;;5.90;4.70;;;;;;;;;;4953061;29;20102;-69
2021/05/13 00:29:05;;;;;;;8.10;4.82;;;;;;;;;;4953228;29;20093;-69
2021/05/13 00:31:32;;;;;;;8.82;5.38;;;;;;;;;;4953126;29;20083;-69
2021/05/13 00:34:00;;;;;;;7.57;5.40;;;;;;;;;;4953348;29;20055;-68
2021/05/13 00:36:28;;;;;;;11.18;5.82;;;;;;;;;;4952941;29;20051;-69
2021/05/13 00:39:02;;;;;;;7.75;5.20;;;;;;;;;;4937160;29;20062;-68
2021/05/13 00:41:28;;;;;;;9.35;5.07;;;;;;;;;;4953040;29;20118;-69
2021/05/13 00:43:56;;;;;;;7.85;4.85;;;;;;;;;;4953230;29;20483;-68
2021/05/13 00:46:24;;;;;;;8.50;5.22;;;;;;;;;;4952854;29;20051;-68
2021/05/13 00:48:52;;;;;;;7.47;5.07;;;;;;;;;;4953085;28;20063;-69
2021/05/13 00:51:18;;;;;;;6.63;5.50;;;;;;;;;;4956249;29;20106;-69
2021/05/13 00:53:46;;;;;;;6.60;4.82;;;;;;;;;;4956570;29;20062;-69
2021/05/13 00:56:13;;;;;;;6.88;4.82;;;;;;;;;;4956243;29;20051;-69
2021/05/13 00:58:45;;;;;;;9.23;4.95;;;;;;;;;;4956512;29;20118;-69
2021/05/13 01:01:14;;;;;;;9.60;5.23;;;;;;;;;;4956491;29;20055;-69
2021/05/13 01:03:42;;;;;;;8.65;5.05;;;;;;;;;;4956362;29;20055;-68
2021/05/13 01:06:10;;;;;;;6.25;5.18;;;;;;;;;;4956189;29;20051;-68
2021/05/13 01:08:37;;;;;;;6.07;5.20;;;;;;;;;;4956072;29;20421;-68
2021/05/13 01:11:04;;;;;;;8.77;5.68;;;;;;;;;;4956212;29;20055;-69
2021/05/13 01:13:34;;;;;;;10.70;5.43;;;;;;;;;;4956176;29;20083;-69
2021/05/13 01:18:35;;;;;;;8.75;5.38;;;;;;;;;;4956007;29;20067;-69
2021/05/13 01:21:01;;;;;;;7.70;4.80;;;;;;;;;;4955920;29;20553;-69
2021/05/13 01:23:28;;;;;;;6.97;5.13;;;;;;;;;;4955903;29;20070;-69
2021/05/13 01:25:55;;;;;;;10.65;5.68;;;;;;;;;;4955910;29;20075;-69
2021/05/13 01:28:25;;;;;;;8.80;4.78;;;;;;;;;;4955946;29;20051;-69
2021/05/13 01:30:52;;;;;;;10.93;5.03;;;;;;;;;;4955968;29;20093;-69
2021/05/13 01:33:24;;;;;;;8.38;5.07;;;;;;;;;;4955830;29;20055;-69
2021/05/13 01:35:52;;;;;;;6.35;5.57;;;;;;;;;;4955714;29;20087;-69
2021/05/13 01:38:21;;;;;;;9.18;5.00;;;;;;;;;;4955774;29;20145;-69
2021/05/13 01:40:59;;;;;;;7.00;5.55;;;;;;;;;;4955566;29;20545;-68
2021/05/13 01:43:27;;;;;;;8.93;5.82;;;;;;;;;;4938890;29;20051;-69
2021/05/13 01:45:54;;;;;;;8.80;6.40;;;;;;;;;;4955560;29;20110;-68
2021/05/13 01:48:21;;;;;;;10.85;5.30;;;;;;;;;;4955480;29;20114;-68
2021/05/13 01:50:48;;;;;;;6.53;5.50;;;;;;;;;;4955517;29;20514;-68
2021/05/13 01:53:15;;;;;;;7.47;5.70;;;;;;;;;;4938431;29;20129;-68
2021/05/13 01:55:42;;;;;;;7.63;5.20;;;;;;;;;;4955205;29;20126;-68
2021/05/13 01:58:08;;;;;;;8.00;5.15;;;;;;;;;;4955361;29;20082;-69
2021/05/13 02:00:36;;;;;;;7.95;5.78;;;;;;;;;;4955737;28;20475;-69
2021/05/13 02:03:03;;;;;;;8.57;5.78;;;;;;;;;;4955009;29;20051;-69
2021/05/13 02:05:30;;;;;;;9.68;5.63;;;;;;;;;;4955040;29;20054;-69
2021/05/13 02:07:57;;;;;;;9.55;6.47;;;;;;;;;;4955378;29;20107;-69
2021/05/13 02:10:23;;;;;;;6.68;5.00;;;;;;;;;;4953949;29;20087;-68
2021/05/13 02:12:50;;;;;;;6.65;5.43;;;;;;;;;;4955328;29;20090;-69
2021/05/13 02:15:17;;;;;;;8.50;5.32;;;;;;;;;;4954711;29;20093;-69
2021/05/13 02:17:45;;;;;;;9.32;5.70;;;;;;;;;;4954814;29;20486;-69
2021/05/13 02:20:13;;;;;;;12.80;5.65;;;;;;;;;;4954767;29;20192;-69
2021/05/13 02:22:40;;;;;;;8.13;5.30;;;;;;;;;;4954983;29;20059;-69
2021/05/13 02:25:08;;;;;;;6.05;5.07;;;;;;;;;;4954817;29;20474;-69
2021/05/13 02:27:35;;;;;;;10.90;6.65;;;;;;;;;;4954133;29;20055;-69
2021/05/13 02:30:03;;;;;;;8.50;5.80;;;;;;;;;;4954836;29;20051;-69
2021/05/13 02:32:30;;;;;;;6.30;5.40;;;;;;;;;;4954726;29;20051;-68
2021/05/13 02:34:57;;;;;;;8.55;6.18;;;;;;;;;;4955079;29;20138;-69
2021/05/13 02:37:23;;;;;;;7.30;5.63;;;;;;;;;;4954045;29;20094;-69
2021/05/13 02:39:50;;;;;;;9.73;5.70;;;;;;;;;;4954732;29;20106;-69
2021/05/13 02:42:17;;;;;;;12.00;6.32;;;;;;;;;;4954657;29;20102;-68
2021/05/13 02:44:44;;;;;;;10.38;5.95;;;;;;;;;;4954690;29;20055;-68
2021/05/13 02:47:10;;;;;;;9.52;6.20;;;;;;;;;;4954269;29;20050;-68
2021/05/13 02:49:37;;;;;;;6.53;5.25;;;;;;;;;;4954361;29;20093;-68
2021/05/13 02:52:04;;;;;;;8.45;6.25;;;;;;;;;;4954517;29;20090;-69
2021/05/13 02:54:32;;;;;;;12.73;7.38;;;;;;;;;;4954181;29;20051;-69
2021/05/13 02:56:58;;;;;;;8.43;6.60;;;;;;;;;;4937160;29;20561;-68
2021/05/13 02:59:33;;;;;;;8.95;5.88;;;;;;;;;;4954194;29;20059;-68
2021/05/13 03:01:59;;;;;;;6.50;5.78;;;;;;;;;;4954332;29;20055;-68
2021/05/13 03:04:26;;;;;;;10.35;6.63;;;;;;;;;;4954274;29;20063;-69
2021/05/13 03:06:53;;;;;;;7.72;6.18;;;;;;;;;;4954053;29;20074;-68
2021/05/13 03:09:20;;;;;;;7.63;6.57;;;;;;;;;;4954038;29;20084;-68
2021/05/13 03:11:47;;;;;;;9.60;6.55;;;;;;;;;;4954393;29;20051;-68
2021/05/13 03:14:13;;;;;;;7.38;5.75;;;;;;;;;;4953896;28;20155;-68
2021/05/13 03:16:40;;;;;;;10.93;6.43;;;;;;;;;;4953810;29;20462;-68
2021/05/13 03:19:12;;;;;;;8.45;6.25;;;;;;;;;;4953890;29;20502;-68
2021/05/13 03:21:40;;;;;;;9.60;6.13;;;;;;;;;;4951899;23;20578;-71
2021/05/13 03:26:55;;;;;;;;;;;;;;;;;;4935101;29;20173;-71
2021/05/13 03:29:22;;;;;;;9.93;5.65;;;;;;;;;;4934852;29;19934;-70
2021/05/13 03:31:49;;;;;;;10.02;6.38;;;;;;;;;;4934723;29;20052;-70
2021/05/13 03:34:15;;;;;;;7.68;6.80;;;;;;;;;;4934691;29;20054;-71
2021/05/13 03:36:42;;;;;;;8.98;6.53;;;;;;;;;;4934512;29;20110;-70
2021/05/13 03:39:09;;;;;;;8.52;6.82;;;;;;;;;;4934680;29;20115;-73
2021/05/13 03:41:37;;;;;;;10.32;5.82;;;;;;;;;;4934581;29;20055;-73
2021/05/13 03:44:04;;;;;;;10.57;6.47;;;;;;;;;;4934770;29;20048;-73
2021/05/13 03:46:31;;;;;;;7.68;6.60;;;;;;;;;;4934411;29;20462;-72
2021/05/13 03:48:57;;;;;;;12.90;7.03;;;;;;;;;;4934732;29;20083;-74
2021/05/13 03:51:24;;;;;;;13.77;6.38;;;;;;;;;;4934514;29;20055;-73
2021/05/13 03:53:51;;;;;;;13.35;7.10;;;;;;;;;;4934749;29;20107;-73
2021/05/13 03:56:17;;;;;;;8.40;6.75;;;;;;;;;;4934158;29;20043;-73
2021/05/13 03:58:50;;;;;;;7.80;6.57;;;;;;;;;;4934598;29;20087;-73
2021/05/13 04:02:05;;;;;;;;;;;;;;;;;;4934806;29;20489;-73
2021/05/13 04:04:04;;;;;;;9.63;6.13;;;;;;;;;;4927592;29;20006;-74
2021/05/13 04:06:30;;;;;;;7.70;5.68;;;;;;;;;;4933723;29;20083;-74
2021/05/13 04:08:57;;;;;;;8.75;6.18;;;;;;;;;;4898718;29;20104;-73
2021/05/13 04:11:23;;;;;;;6.88;6.00;;;;;;;;;;4914164;29;20063;-73
2021/05/13 04:13:51;;;;;;;11.35;6.50;;;;;;;;;;4915599;29;20052;-73
2021/05/13 04:16:26;;;;;;;9.35;6.68;;;;;;;;;;4914990;29;20459;-74
2021/05/13 04:18:53;;;;;;;8.85;5.85;;;;;;;;;;4915524;29;20064;-73
2021/05/13 04:21:20;;;;;;;7.93;5.82;;;;;;;;;;4915115;29;20467;-73
2021/05/13 04:23:46;;;;;;;6.63;5.60;;;;;;;;;;4915613;29;20052;-73
2021/05/13 04:26:13;;;;;;;7.47;6.32;;;;;;;;;;4918368;29;20052;-73
2021/05/13 04:28:39;;;;;;;9.43;5.80;;;;;;;;;;4919257;29;20111;-73
2021/05/13 04:31:06;;;;;;;8.82;6.85;;;;;;;;;;4918847;29;20080;-73
2021/05/13 04:33:33;;;;;;;7.85;6.80;;;;;;;;;;4918712;29;20052;-73
2021/05/13 04:36:00;;;;;;;10.75;6.28;;;;;;;;;;4918392;29;20419;-73
2021/05/13 04:38:27;;;;;;;9.82;6.18;;;;;;;;;;4918666;29;20083;-74
2021/05/13 04:40:54;;;;;;;11.20;6.90;;;;;;;;;;4918647;29;20059;-72
2021/05/13 04:43:20;;;;;;;12.05;6.47;;;;;;;;;;4929539;29;20619;-73
2021/05/13 04:45:48;;;;;;;11.13;6.90;;;;;;;;;;4920758;29;20106;-73
2021/05/13 04:48:18;;;;;;;8.55;6.22;;;;;;;;;;4937260;29;20052;-73
2021/05/13 04:50:45;;;;;;;8.63;7.35;;;;;;;;;;4937497;29;20056;-74
2021/05/13 04:53:14;;;;;;;13.02;7.80;;;;;;;;;;4936444;29;20463;-73
2021/05/13 04:55:41;;;;;;;11.70;7.32;;;;;;;;;;4936331;29;20059;-73
2021/05/13 04:58:12;;;;;;;9.52;8.27;;;;;;;;;;4937334;29;20491;-72
2021/05/13 05:00:39;;;;;;;11.70;8.82;;;;;;;;;;4920662;29;20056;-73
2021/05/13 05:03:06;;;;;;;9.60;8.13;;;;;;;;;;4937395;29;20079;-73
2021/05/13 05:05:32;;;;;;;10.13;7.55;;;;;;;;;;4937083;29;20130;-73
2021/05/13 05:08:00;;;;;;;9.15;7.60;;;;;;;;;;4937458;29;20422;-73
2021/05/13 05:10:26;;;;;;;11.18;8.13;;;;;;;;;;4936999;29;20055;-73
2021/05/13 05:12:53;;;;;;;10.30;7.80;;;;;;;;;;4937183;29;20114;-73
2021/05/13 05:15:19;;;;;;;12.35;9.38;;;;;;;;;;4936822;29;20055;-72
2021/05/13 05:17:46;;;;;;;10.23;7.57;;;;;;;;;;4935923;29;20103;-73
2021/05/13 05:20:13;;;;;;;8.23;7.30;;;;;;;;;;4937086;29;20061;-73
2021/05/13 05:22:39;;;;;;;9.75;7.38;;;;;;;;;;4936999;29;20089;-74
2021/05/13 05:25:06;;;;;;;8.95;6.63;;;;;;;;;;4920276;29;20095;-73
2021/05/13 05:27:34;;;;;;;9.23;7.30;;;;;;;;;;4936754;29;20047;-72
2021/05/13 05:30:01;;;;;;;10.32;7.45;;;;;;;;;;4937000;29;20102;-72
2021/05/13 05:32:27;;;;;;;8.30;6.90;;;;;;;;;;4918615;29;20084;-72
2021/05/13 05:34:54;;;;;;;8.40;6.53;;;;;;;;;;4917912;29;20052;-72
2021/05/13 05:37:20;;;;;;;9.77;6.95;;;;;;;;;;4928218;29;20080;-72
2021/05/13 05:39:47;;;;;;;8.48;6.50;;;;;;;;;;4917745;29;20056;-72
2021/05/13 05:42:13;;;;;;;9.45;6.35;;;;;;;;;;4934373;29;20052;-72
2021/05/13 05:44:40;;;;;;;8.38;7.18;;;;;;;;;;4936606;29;20067;-72
2021/05/13 05:47:06;;;;;;;8.07;6.85;;;;;;;;;;4936459;29;20047;-72
2021/05/13 05:49:33;;;;;;;10.35;7.03;;;;;;;;;;4936581;29;20056;-72
2021/05/13 05:51:59;;;;;;;9.65;6.75;;;;;;;;;;4936638;29;20079;-72
2021/05/13 05:54:26;;;;;;;10.75;7.93;;;;;;;;;;4936461;29;20064;-72
2021/05/13 05:56:53;;;;;;;11.23;7.00;;;;;;;;;;4933324;29;20052;-72
2021/05/13 05:59:20;;;;;;;10.45;7.30;;;;;;;;;;4917464;29;20067;-72
2021/05/13 06:01:47;;;;;;;9.82;6.47;;;;;;;;;;4925939;29;20059;-72
2021/05/13 06:04:14;;;;;;;9.05;6.35;;;;;;;;;;4936434;29;20058;-72
2021/05/13 06:06:40;;;;;;;9.25;6.22;;;;;;;;;;4935980;29;20051;-72
2021/05/13 06:09:08;;;;;;;8.85;6.05;;;;;;;;;;4919822;29;20571;-72
2021/05/13 06:11:34;;;;;;;9.68;6.28;;;;;;;;;;4917151;29;20415;-72
2021/05/13 06:14:01;;;;;;;8.13;5.90;;;;;;;;;;4917235;29;20058;-72
2021/05/13 06:16:28;;;;;;;8.43;5.25;;;;;;;;;;4916799;29;20063;-72
2021/05/13 06:18:56;;;;;;;10.95;5.43;;;;;;;;;;4917261;29;20492;-72
2021/05/13 06:21:23;;;;;;;6.60;5.13;;;;;;;;;;4899972;29;20456;-72
2021/05/13 06:23:54;;;;;;;6.55;4.55;;;;;;;;;;4915869;29;20135;-71
2021/05/13 06:26:32;;;;;;;6.65;4.75;;;;;;;;;;4916628;29;20404;-71
2021/05/13 06:29:05;;;;;;;8.95;6.30;;;;;;;;;;4934774;29;20507;-72
2021/05/13 06:31:35;;;;;;;12.35;6.65;;;;;;;;;;4921414;29;20052;-71
2021/05/13 06:34:03;;;;;;;8.80;5.93;;;;;;;;;;4918586;29;20055;-72
2021/05/13 06:36:29;;;;;;;11.77;6.72;;;;;;;;;;4934622;29;20056;-74
2021/05/13 06:38:56;;;;;;;7.65;4.38;;;;;;;;;;4934622;29;20051;-74
2021/05/13 06:41:23;;;;;;;5.30;3.58;;;;;;;;;;4935375;29;20578;-74
2021/05/13 06:43:49;;;;;;;4.40;4.00;;;;;;;;;;4935778;29;20119;-70
2021/05/13 06:46:16;;;;;;;7.93;5.20;;;;;;;;;;4935264;29;20127;-71
2021/05/13 06:48:48;;;;;;;7.53;5.38;;;;;;;;;;4934321;29;20130;-71
2021/05/13 06:51:14;;;;;;;4.85;4.32;;;;;;;;;;4935249;29;20082;-70
2021/05/13 06:53:41;;;;;;;6.68;4.65;;;;;;;;;;4935552;29;20467;-71
2021/05/13 06:56:07;;;;;;;6.82;4.28;;;;;;;;;;4932247;29;20487;-70
2021/05/13 06:58:34;;;;;;;8.95;4.22;;;;;;;;;;4933403;29;20056;-69
2021/05/13 07:01:00;;;;;;;6.32;3.90;;;;;;;;;;4933258;29;20056;-70
2021/05/13 07:03:27;;;;;;;7.55;3.80;;;;;;;;;;4933309;29;20048;-70
2021/05/13 07:05:54;;;;;;;6.80;3.28;;;;;;;;;;4933186;29;20565;-69
2021/05/13 07:08:20;;;;;;;5.70;2.78;;;;;;;;;;4932778;29;20491;-70
2021/05/13 07:10:47;;;;;;;4.60;3.25;;;;;;;;;;4933254;29;20079;-70
2021/05/13 07:13:13;;;;;;;7.70;3.10;;;;;;;;;;4933262;29;20051;-70
2021/05/13 07:15:40;;;;;;;4.18;2.92;;;;;;;;;;4932908;29;20075;-69
2021/05/13 07:18:16;;;;;;;3.10;2.58;;;;;;;;;;4933098;29;20051;-70
2021/05/13 07:20:44;;;;;;;7.82;3.20;;;;;;;;;;4931842;29;20055;-70
2021/05/13 07:23:11;;;;;;;3.17;2.42;;;;;;;;;;4933205;29;20059;-70
2021/05/13 07:25:37;;;;;;;5.03;2.75;;;;;;;;;;4932194;29;20103;-70
2021/05/13 07:28:04;;;;;;;5.65;2.40;;;;;;;;;;4933213;29;20051;-70
2021/05/13 07:30:32;;;;;;;5.45;3.00;;;;;;;;;;4922955;29;20047;-71
2021/05/13 07:32:58;;;;;;;5.03;2.30;;;;;;;;;;4928612;29;20103;-71
2021/05/13 07:35:29;;;;;;;4.47;2.55;;;;;;;;;;4921935;29;20156;-70
2021/05/13 07:37:55;;;;;;;4.40;1.98;;;;;;;;;;4925595;29;20483;-70
2021/05/13 07:40:23;;;;;;;2.42;1.73;;;;;;;;;;4924951;29;20180;-71
2021/05/13 07:42:50;;;;;;;4.28;1.60;;;;;;;;;;4927141;29;20483;-71
2021/05/13 07:45:17;;;;;;;1.88;1.60;;;;;;;;;;4922075;29;20108;-68
2021/05/13 07:47:44;;;;;;;4.15;2.03;;;;;;;;;;4912949;29;20048;-70
2021/05/13 07:50:13;;;;;;;5.07;2.15;;;;;;;;;;4923161;29;20086;-70
2021/05/13 07:52:40;;;;;;;3.63;2.00;;;;;;;;;;4919994;29;20499;-70
2021/05/13 07:55:07;;;;;;;5.15;2.22;;;;;;;;;;4922040;29;20521;-70
2021/05/13 07:57:34;;;;;;;3.03;1.80;;;;;;;;;;4920415;29;20072;-70
2021/05/13 08:00:03;;;;;;;3.67;2.00;;;;;;;;;;4910416;29;20048;-70
2021/05/13 08:02:30;;;;;;;5.30;2.20;;;;;;;;;;4929403;29;20047;-71
2021/05/13 08:04:56;;;;;;;4.88;1.90;;;;;;;;;;4933501;29;20052;-71
2021/05/13 08:07:23;;;;;;;6.00;2.20;;;;;;;;;;4938171;29;20677;-71
2021/05/13 08:09:50;;;;;;;3.60;1.80;;;;;;;;;;4938406;29;20054;-71
2021/05/13 08:12:17;;;;;;;7.85;1.95;;;;;;;;;;4938349;29;20052;-71
2021/05/13 08:14:44;;;;;;;3.80;1.63;;;;;;;;;;4938129;29;20047;-70
2021/05/13 08:17:12;;;;;;;3.22;1.30;;;;;;;;;;4937874;29;20047;-70
2021/05/13 08:19:39;;;;;;;4.35;1.33;;;;;;;;;;4933869;29;20052;-70
2021/05/13 08:22:06;;;;;;;6.43;1.77;;;;;;;;;;4918972;29;20563;-70
2021/05/13 08:24:33;;;;;;;1.45;1.08;;;;;;;;;;4918923;29;20107;-70
2021/05/13 08:27:01;;;;;;;1.88;1.30;;;;;;;;;;4918829;29;20473;-70
2021/05/13 08:29:30;;;;;;;2.88;1.30;;;;;;;;;;4918950;29;20067;-70
2021/05/13 08:31:57;;;;;;;2.53;1.33;;;;;;;;;;4918757;29;20563;-70
2021/05/13 08:34:24;;;;;;;4.30;1.58;;;;;;;;;;4918929;29;20080;-70
2021/05/13 08:36:51;;;;;;;2.47;1.30;;;;;;;;;;4918693;29;20472;-70
2021/05/13 08:39:22;;;;;;;5.07;1.58;;;;;;;;;;4919156;29;20064;-69
2021/05/13 08:41:49;;;;;;;4.43;1.20;;;;;;;;;;4915718;29;20055;-72
2021/05/13 08:44:15;;;;;;;1.77;1.08;;;;;;;;;;4929503;29;20419;-71
2021/05/13 08:46:42;;;;;;;4.90;1.38;;;;;;;;;;4903800;29;20059;-72
2021/05/13 08:49:08;;;;;;;3.60;1.50;;;;;;;;;;4927510;29;20119;-72
2021/05/13 08:51:38;;;;;;;1.80;1.10;;;;;;;;;;4927990;29;20055;-70
2021/05/13 08:54:05;;;;;;;4.00;1.20;;;;;;;;;;4937934;28;20036;-71
2021/05/13 08:56:32;;;;;;;2.50;1.13;;;;;;;;;;4896755;29;20051;-71
2021/05/13 08:59:05;;;;;;;3.10;1.20;;;;;;;;;;4924288;29;20090;-70
2021/05/13 09:01:33;;;;;;;1.73;0.98;;;;;;;;;;4930668;29;20051;-70
2021/05/13 09:04:01;;;;;;;3.45;1.15;;;;;;;;;;4929778;29;20084;-71
2021/05/13 09:06:35;;;;;;;2.47;1.38;;;;;;;;;;4922763;29;20111;-73
2021/05/13 09:09:13;;;;;;;3.15;1.20;;;;;;;;;;4913005;29;20043;-70
2021/05/13 09:11:46;;;;;;;2.78;1.10;;;;;;;;;;4921907;29;20486;-73
2021/05/13 09:14:13;;;;;;;3.53;1.15;;;;;;;;;;4925625;29;20048;-73
2021/05/13 09:16:44;;;;;;;4.22;1.30;;;;;;;;;;4902209;29;20119;-73
2021/05/13 09:19:28;;;;;;;2.10;1.10;;;;;;;;;;4927357;29;20116;-72
2021/05/13 09:22:02;;;;;;;2.10;1.13;;;;;;;;;;4961680;23;20047;-72
2021/05/13 09:25:05;;;;;;;1.58;1.30;;;;;;;;;;4893142;28;20119;-74
2021/05/13 09:27:45;;;;;;;3.80;1.50;;;;;;;;;;4917059;29;20059;-72
2021/05/13 09:30:18;;;;;;;2.72;0.95;;;;;;;;;;4945051;29;20055;-71
2021/05/13 09:32:51;;;;;;;2.28;1.00;;;;;;;;;;4947332;29;20102;-69
2021/05/13 09:35:21;;;;;;;4.07;1.15;;;;;;;;;;4947299;29;20054;-72
2021/05/13 09:38:02;;;;;;;1.75;1.10;;;;;;;;;;4930205;29;20054;-72
2021/05/13 09:40:37;;;;;;;3.53;1.58;;;;;;;;;;4905679;29;20056;-71
2021/05/13 09:43:12;;;;;;;2.00;1.10;;;;;;;;;;4943873;29;20593;-71
2021/05/13 09:45:50;;;;;;;5.70;1.33;;;;;;;;;;4943911;29;20085;-73
2021/05/13 09:48:41;;;;;;;2.83;1.33;;;;;;;;;;4944881;29;20138;-75
2021/05/13 09:51:22;;;;;;;3.38;1.00;;;;;;;;;;4947256;29;20044;-75
2021/05/13 09:54:12;;;;;;;2.20;1.17;;;;;;;;;;4936538;29;20047;-71
2021/05/13 09:56:40;;;;;;;3.00;1.20;;;;;;;;;;4926210;29;20106;-72
2021/05/13 09:59:29;;;;;;;2.30;0.93;;;;;;;;;;4946114;29;20039;-71
2021/05/13 10:02:00;;;;;;;2.85;1.40;;;;;;;;;;4929889;28;20047;-71
2021/05/13 10:04:27;;;;;;;2.40;1.27;;;;;;;;;;4924132;28;20059;-71
2021/05/13 10:06:54;;;;;;;1.80;1.15;;;;;;;;;;4946627;29;20055;-72
2021/05/13 10:09:22;;;;;;;4.85;1.55;;;;;;;;;;4926916;29;20127;-70
2021/05/13 10:11:51;;;;;;;3.40;1.38;;;;;;;;;;4944081;29;20051;-71
2021/05/13 10:14:19;;;;;;;1.85;0.98;;;;;;;;;;4947064;29;20082;-71
2021/05/13 10:16:46;;;;;;;2.00;0.90;;;;;;;;;;4944962;29;20048;-70
2021/05/13 10:19:17;;;;;;;5.57;1.50;;;;;;;;;;4930447;29;20047;-72
2021/05/13 10:21:44;;;;;;;2.65;1.50;;;;;;;;;;4927296;29;20051;-70
2021/05/13 10:24:12;;;;;;;3.00;1.15;;;;;;;;;;4944422;29;20579;-71
2021/05/13 10:26:42;;;;;;;2.58;0.93;;;;;;;;;;4944372;29;20541;-74
2021/05/13 10:29:23;;;;;;;2.30;0.80;;;;;;;;;;4938411;29;20044;-72
2021/05/13 10:32:10;;;;;;;1.20;0.60;;;;;;;;;;4940757;29;20079;-72
2021/05/13 10:34:58;;;;;;;2.40;0.80;;;;;;;;;;4940261;29;20079;-73
2021/05/13 10:37:29;;;;;;;2.00;0.82;;;;;;;;;;4928594;29;20055;-74
2021/05/13 10:41:02;;;;;;;2.20;0.63;;;;;;;;;;4926136;29;20059;-74
2021/05/13 10:43:02;;;;;;;2.95;1.08;;;;;;;;;;4938859;29;20387;-73
2021/05/13 10:45:29;;;;;;;3.33;1.02;;;;;;;;;;4939739;29;20279;-73
2021/05/13 10:48:22;;;;;;;3.17;0.88;;;;;;;;;;4942371;29;20114;-73
2021/05/13 10:51:11;;;;;;;3.00;0.98;;;;;;;;;;4947633;29;20485;-73
2021/05/13 10:56:27;;;;;;;1.77;0.93;;;;;;;;;;4924390;29;20102;-75
2021/05/13 10:59:09;;;;;;;1.65;0.68;;;;;;;;;;4943532;29;20047;-74
2021/05/13 11:01:44;;;;;;;2.72;0.90;;;;;;;;;;4946783;29;20472;-71
2021/05/13 11:04:20;;;;;;;2.05;0.90;;;;;;;;;;4944943;29;20407;-74
2021/05/13 11:06:56;;;;;;;2.90;0.80;;;;;;;;;;4941913;29;20051;-73
2021/05/13 11:09:43;;;;;;;2.47;0.90;;;;;;;;;;4944541;29;20051;-71
2021/05/13 11:12:14;;;;;;;2.78;0.93;;;;;;;;;;4943754;29;20404;-72
2021/05/13 11:14:59;;;;;;;1.05;0.90;;;;;;;;;;4940429;29;20065;-73
2021/05/13 11:17:51;;;;;;;5.35;1.42;;;;;;;;;;4940538;29;20114;-73
2021/05/13 11:20:22;;;;;;;4.60;1.38;;;;;;;;;;4939424;29;20047;-72
2021/05/13 11:22:58;;;;;;;2.25;1.00;;;;;;;;;;4926310;29;20125;-72
2021/05/13 11:25:45;;;;;;;2.63;1.00;;;;;;;;;;4940336;29;20054;-75
2021/05/13 11:28:23;;;;;;;3.05;1.00;;;;;;;;;;4941617;29;20055;-77
2021/05/13 11:31:06;;;;;;;2.95;0.95;;;;;;;;;;4920583;29;20827;-77
2021/05/13 11:33:52;;;;;;;2.00;0.82;;;;;;;;;;4941562;28;20059;-75
2021/05/13 11:36:30;;;;;;;2.40;0.73;;;;;;;;;;4938769;28;20431;-76
2021/05/13 11:38:58;;;;;;;2.95;0.90;;;;;;;;;;4923295;29;20252;-72
2021/05/13 11:41:25;;;;;;;3.95;1.08;;;;;;;;;;4923258;29;20423;-73
2021/05/13 11:43:52;;;;;;;4.30;1.80;;;;;;;;;;4922077;29;20048;-72
2021/05/13 11:46:22;;;;;;;1.52;1.40;;;;;;;;;;4927818;28;20466;-73
2021/05/13 11:48:50;;;;;;;2.67;1.90;;;;;;;;;;4936481;29;20054;-72
2021/05/13 11:51:30;;;;;;;4.15;1.67;;;;;;;;;;4939076;29;20407;-72
2021/05/13 11:53:59;;;;;;;2.90;1.17;;;;;;;;;;4917130;29;20051;-71
2021/05/13 11:56:26;;;;;;;6.32;2.28;;;;;;;;;;4941160;29;20059;-72
2021/05/13 11:58:57;;;;;;;3.42;1.40;;;;;;;;;;4939694;29;20435;-72
2021/05/13 12:01:34;;;;;;;2.88;1.20;;;;;;;;;;4925596;29;20052;-73
2021/05/13 12:04:04;;;;;;;1.75;0.77;;;;;;;;;;4934799;29;20103;-72
2021/05/13 12:06:40;;;;;;;1.10;0.80;;;;;;;;;;4940633;29;20051;-73
2021/05/13 12:09:07;;;;;;;2.95;1.10;;;;;;;;;;4923318;28;20578;-73
2021/05/13 12:11:34;;;;;;;2.25;1.02;;;;;;;;;;4968727;28;20086;-72
2021/05/13 12:14:11;;;;;;;11.70;1.77;;;;;;;;;;4969032;28;20065;-72
2021/05/13 12:16:41;;;;;;;2.25;1.35;;;;;;;;;;4969971;28;20047;-72
2021/05/13 12:19:10;;;;;;;1.77;0.82;;;;;;;;;;4938882;28;20413;-72
2021/05/13 12:21:38;;;;;;;3.15;0.90;;;;;;;;;;4937912;28;20141;-72
2021/05/13 12:24:05;;;;;;;2.35;0.95;;;;;;;;;;4937517;28;20054;-72
2021/05/13 12:26:35;;;;;;;4.50;1.20;;;;;;;;;;4970386;28;20125;-73
2021/05/13 12:29:03;;;;;;;2.97;0.95;;;;;;;;;;4937974;28;20054;-72
2021/05/13 12:31:31;;;;;;;2.30;0.73;;;;;;;;;;4957286;28;20510;-73
2021/05/13 12:34:04;;;;;;;3.05;0.80;;;;;;;;;;4951340;29;20470;-73
2021/05/13 12:36:40;;;;;;;1.52;0.70;;;;;;;;;;4934232;29;20418;-73
2021/05/13 12:39:07;;;;;;;2.72;0.80;;;;;;;;;;4934042;29;20110;-73
2021/05/13 12:41:34;;;;;;;2.58;0.80;;;;;;;;;;4949629;29;20063;-74
2021/05/13 12:44:13;;;;;;;3.17;0.75;;;;;;;;;;4934098;29;20134;-73
2021/05/13 12:46:44;;;;;;;3.55;1.10;;;;;;;;;;4938932;29;20059;-73
2021/05/13 12:49:19;;;;;;;2.67;0.80;;;;;;;;;;4953257;29;20051;-73
2021/05/13 12:52:05;;;;;;;2.95;0.90;;;;;;;;;;4952094;29;20117;-73
2021/05/13 12:54:42;;;;;;;4.38;0.82;;;;;;;;;;4942958;29;20414;-71
2021/05/13 12:57:19;;;;;;;4.07;1.38;;;;;;;;;;4946265;29;20059;-71
2021/05/13 12:59:52;;;;;;;4.32;0.90;;;;;;;;;;4947765;29;20102;-70
2021/05/13 13:02:22;;;;;;;;;;;;;;;;;;4949402;29;20530;-70
2021/05/13 13:04:59;;;;;;;2.00;0.93;;;;;;;;;;4946573;29;19969;-71
2021/05/13 13:07:35;;;;;;;3.20;0.70;;;;;;;;;;4947722;28;20047;-71
2021/05/13 13:10:28;;;;;;;1.88;1.00;;;;;;;;;;4951707;28;20044;-70
2021/05/13 13:13:09;;;;;;;3.88;0.90;;;;;;;;;;4949528;28;20114;-73
2021/05/13 13:18:33;;;;;;;1.58;0.50;;;;;;;;;;4947149;28;20134;-70
2021/05/13 13:21:10;;;;;;;3.03;0.90;;;;;;;;;;4951947;28;20203;-70
2021/05/13 13:23:37;;;;;;;3.38;0.70;;;;;;;;;;4952483;28;20185;-70
2021/05/13 13:26:06;;;;;;;1.60;0.70;;;;;;;;;;4953665;28;20149;-75
2021/05/13 13:28:34;;;;;;;0.90;0.50;;;;;;;;;;4942611;29;20052;-72
2021/05/13 13:31:05;;;;;;;0.90;0.80;;;;;;;;;;4945000;29;20062;-72
2021/05/13 13:33:35;;;;;;;2.50;0.82;;;;;;;;;;4944078;29;20051;-71
2021/05/13 13:36:03;;;;;;;3.35;0.90;;;;;;;;;;4944406;28;20154;-70
2021/05/13 13:38:30;;;;;;;1.27;0.70;;;;;;;;;;4939574;29;20052;-73
2021/05/13 13:40:58;;;;;;;2.13;0.82;;;;;;;;;;4940955;29;20503;-69
2021/05/13 13:43:26;;;;;;;0.85;0.50;;;;;;;;;;4943140;29;20047;-70
2021/05/13 13:45:57;;;;;;;0.73;0.70;;;;;;;;;;4944059;28;20114;-70
2021/05/13 13:48:25;;;;;;;2.00;0.93;;;;;;;;;;4945027;29;20043;-70
2021/05/13 13:50:53;;;;;;;1.70;1.45;;;;;;;;;;4946059;28;20047;-71
2021/05/13 13:53:21;;;;;;;1.83;0.90;;;;;;;;;;4939116;29;20056;-71
2021/05/13 13:55:52;;;;;;;5.47;0.90;;;;;;;;;;4939743;29;20051;-70
2021/05/13 13:58:18;;;;;;;1.65;0.40;;;;;;;;;;4943858;28;20055;-73
2021/05/13 14:00:46;;;;;;;2.75;0.70;;;;;;;;;;4945418;29;20083;-74
2021/05/13 14:03:13;;;;;;;1.48;0.70;;;;;;;;;;4942286;29;20104;-70
2021/05/13 14:05:40;;;;;;;2.17;0.73;;;;;;;;;;4939645;29;20585;-71
2021/05/13 14:08:06;;;;;;;1.05;0.60;;;;;;;;;;4945003;29;20043;-70
2021/05/13 14:10:33;;;;;;;0.93;0.40;;;;;;;;;;4945750;28;20086;-71
2021/05/13 14:12:59;;;;;;;0.65;0.50;;;;;;;;;;4948765;28;20102;-71
2021/05/13 14:15:26;;;;;;;1.70;0.50;;;;;;;;;;4945911;29;20066;-71
2021/05/13 14:17:53;;;;;;;1.50;0.60;;;;;;;;;;4943890;29;20047;-71
2021/05/13 14:20:21;;;;;;;1.27;0.50;;;;;;;;;;4944626;29;20040;-71
2021/05/13 14:22:47;;;;;;;1.27;0.73;;;;;;;;;;4943135;28;20079;-72
2021/05/13 14:25:14;;;;;;;1.42;0.60;;;;;;;;;;4932401;29;20047;-71
2021/05/13 14:27:42;;;;;;;0.50;0.45;;;;;;;;;;4941889;29;20098;-72
2021/05/13 14:30:10;;;;;;;0.73;0.38;;;;;;;;;;4944498;29;20074;-70
2021/05/13 14:32:37;;;;;;;4.20;0.70;;;;;;;;;;4946449;29;20055;-69
2021/05/13 14:35:04;;;;;;;1.20;0.57;;;;;;;;;;4947199;28;20075;-71
2021/05/13 14:37:32;;;;;;;0.77;0.70;;;;;;;;;;4946898;28;20059;-71
2021/05/13 14:40:03;;;;;;;0.80;0.30;;;;;;;;;;4929786;29;20044;-72
2021/05/13 14:42:30;;;;;;;1.02;0.60;;;;;;;;;;4939882;29;20455;-73
2021/05/13 14:45:02;;;;;;;0.73;0.60;;;;;;;;;;4939807;29;20126;-73
2021/05/13 14:47:29;;;;;;;2.25;0.43;;;;;;;;;;4942007;28;20601;-74
2021/05/13 14:49:56;;;;;;;0.30;0.30;;;;;;;;;;4928340;29;20050;-74
2021/05/13 14:52:23;;;;;;;0.50;0.50;;;;;;;;;;4916281;29;20062;-74
2021/05/13 14:55:06;;;;;;;0.80;0.47;;;;;;;;;;4926868;29;20101;-74
2021/05/13 14:57:38;;;;;;;0.70;0.50;;;;;;;;;;4947218;29;20494;-73
2021/05/13 15:00:06;;;;;;;1.58;0.60;;;;;;;;;;4928346;29;20054;-73
2021/05/13 15:02:32;;;;;;;1.83;1.02;;;;;;;;;;4932277;29;20055;-73
2021/05/13 15:04:59;;;;;;;3.25;1.65;;;;;;;;;;4933403;29;20055;-70
2021/05/13 15:07:26;;;;;;;6.43;4.20;;;;;;;;;;4942160;29;20047;-72
2021/05/13 15:09:53;;;;;;;4.07;2.40;;;;;;;;;;4936735;29;20047;-73